Terminal Aerodrome Forecast
Issued by NWS Charleston, WV

Home | Current Version | Previous Version | Text Only | Print | Product List | Glossary On
Versions: 1 2 3 4 5 6 7 8 9 10 11 12 13 14 15 16 17 18 19 20 21
490
FTUS41 KRLX 121120
TAFBKW
TAF
KBKW 121120Z 1212/1312 VRB04KT P6SM BKN250
     FM121500 26008KT 5SM -SN OVC025
     FM121600 27010KT 2SM -SN OVC010
     FM121900 29008KT 5SM -SHSN OVC025
     FM122000 29012G22KT 6SM -SHSN OVC040
     FM130600 31015G30KT 2SM -SHSN OVC010=

USA.gov is the U.S. government's official web portal to all federal, state and local government web resources and services.